| time (UTC) | temp C | wind direction | speed KPH | gust KPH | rain 1hr cm | rain 24hr cm | rain mn cm | humidity % | barometer mb |
| 20260510021552 | -17 | 155 | 0.0 | 0.0 | 0.71 | 1.02 | 0.91 | 1007.8 | |
| 20260510020049 | -17 | 154 | 0.0 | 0.0 | 0.56 | 0.86 | 0.76 | 1007.8 | |
| 20260510014541 | -17 | 275 | 0.0 | 0.0 | 0.41 | 0.71 | 0.61 | 1007.5 | |
| 20260510013038 | -17 | 325 | 0.0 | 1.6 | 0.00 | 0.33 | 0.20 | 1006.7 | |
| 20260510011531 | -17 | 273 | 0.0 | 0.0 | 0.00 | 0.33 | 0.20 | 1004.6 | |
| 20260510010029 | -17 | 224 | 0.0 | 0.0 | 0.00 | 0.33 | 0.20 | 1004.4 | |
| 20260510004520 | -17 | 197 | 0.0 | 0.0 | 0.00 | 0.33 | 0.20 | 1004.5 | |
| 20260510003016 | -17 | 240 | 0.0 | 0.0 | 0.00 | 0.33 | 0.20 | 1004.3 | |
| 20260510001515 | -17 | 288 | 0.0 | 0.0 | 0.00 | 0.33 | 0.20 | 1004.2 | |
| 20260510000008 | -17 | 213 | 0.0 | 0.0 | 0.00 | 0.33 | 0.20 | 1004.0 | |
| 20260509234535 | -17 | 237 | 0.0 | 0.0 | 0.00 | 0.33 | 0.20 | 1003.9 | |
| 20260509233031 | -17 | 280 | 0.0 | 1.6 | 0.00 | 0.33 | 0.20 | 1003.8 | |
| 20260509231522 | -17 | 200 | 0.0 | 0.0 | 0.00 | 0.33 | 0.20 | 1003.8 | |
| 20260509230019 | -17 | 309 | 0.0 | 11.3 | 0.00 | 0.33 | 0.20 | 1003.8 | |
| 20260509224512 | -17 | 232 | 0.0 | 0.0 | 0.00 | 0.33 | 0.20 | 1003.6 | |
| 20260509223009 | -17 | 262 | 0.0 | 0.0 | 0.00 | 0.33 | 0.20 | 1003.3 | |
| 20260509221502 | -17 | 276 | 0.0 | 17.7 | 0.00 | 0.33 | 0.20 | 1003.5 | |
| 20260509220058 | -17 | 225 | 4.8 | 20.9 | 0.00 | 0.33 | 0.20 | 1003.7 | |
| 20260509214554 | -17 | 234 | 0.0 | 0.0 | 0.00 | 0.33 | 0.20 | 1003.7 | |
| 20260509213101 | -17 | 296 | 0.0 | 0.0 | 0.00 | 0.36 | 0.20 | 1003.9 | |
| 20260509211609 | -17 | 217 | 0.0 | 0.0 | 0.00 | 0.36 | 0.20 | 1003.9 | |
| 20260509210038 | -17 | 236 | 0.0 | 11.3 | 0.00 | 0.36 | 0.20 | 1004.2 | |
| 20260509204538 | -17 | 229 | 0.0 | 9.7 | 0.00 | 0.36 | 0.20 | 1004.2 | |
| 20260509203039 | -17 | 230 | 0.0 | 0.0 | 0.00 | 0.36 | 0.20 | 1004.3 | |
| 20260509201525 | -17 | 266 | 0.0 | 0.0 | 0.00 | 0.36 | 0.20 | 1004.6 | |
| 20260509200018 | -17 | 280 | 0.0 | 0.0 | 0.00 | 0.36 | 0.20 | 1004.8 | |
| 20260509194513 | -17 | 229 | 0.0 | 0.0 | 0.00 | 0.36 | 0.20 | 1004.9 | |
| 20260509193009 | -17 | 298 | 0.0 | 0.0 | 0.00 | 0.36 | 0.20 | 1005.0 | |
| 20260509191505 | -17 | 240 | 0.0 | 0.0 | 0.00 | 0.36 | 0.20 | 1005.1 | |
| 20260509190104 | -17 | 302 | 0.0 | 0.0 | 0.00 | 0.36 | 0.20 | 1005.3 | |
| 20260509184554 | -17 | 197 | 0.0 | 0.0 | 0.00 | 0.36 | 0.20 | 1005.6 | |
| 20260509183050 | -17 | 283 | 0.0 | 0.0 | 0.00 | 0.36 | 0.20 | 1005.6 | |
| 20260509181554 | -17 | 219 | 0.0 | 0.0 | 0.00 | 0.36 | 0.20 | 1005.6 | |
| 20260509180037 | -17 | 291 | 8.0 | 29.0 | 0.00 | 0.36 | 0.20 | 1005.7 | |
| 20260509174535 | -17 | 309 | 0.0 | 0.0 | 0.00 | 0.36 | 0.20 | 1005.7 | |
| 20260509173029 | -17 | 217 | 0.0 | 0.0 | 0.00 | 0.36 | 0.20 | 1005.8 | |
| 20260509171525 | -17 | 298 | 0.0 | 0.0 | 0.00 | 0.36 | 0.20 | 1005.6 | |
| 20260509170050 | -17 | 231 | 0.0 | 0.0 | 0.00 | 0.36 | 0.20 | 1005.7 | |
| 20260509164546 | -17 | 211 | 0.0 | 0.0 | 0.00 | 0.36 | 0.20 | 1005.6 | |
| 20260509163050 | -17 | 292 | 0.0 | 0.0 | 0.00 | 0.36 | 0.20 | 1005.6 | |
| 20260509161534 | -17 | 214 | 0.0 | 0.0 | 0.00 | 0.36 | 0.20 | 1005.6 | |
| 20260509160030 | -17 | 230 | 0.0 | 0.0 | 0.00 | 0.36 | 0.20 | 1005.6 | |
| 20260509154526 | -17 | 252 | 0.0 | 0.0 | 0.03 | 0.36 | 0.20 | 1005.6 | |
| 20260509153022 | -17 | 206 | 0.0 | 0.0 | 0.05 | 0.36 | 0.20 | 1005.6 | |
| 20260509151516 | -17 | 214 | 0.0 | 0.0 | 0.08 | 0.36 | 0.20 | 1005.6 | |
| 20260509150011 | -17 | 269 | 0.0 | 0.0 | 0.08 | 0.36 | 0.20 | 1005.7 | |
| 20260509144507 | -17 | 198 | 0.0 | 0.0 | 0.05 | 0.33 | 0.18 | 1005.8 | |
| 20260509143109 | -17 | 281 | 0.0 | 0.0 | 0.03 | 0.30 | 0.15 | 1005.8 | |
| 20260509141556 | -17 | 232 | 0.0 | 0.0 | 0.00 | 0.28 | 0.13 | 1005.8 | |
| 20260509140052 | -17 | 192 | 0.0 | 0.0 | 0.03 | 0.28 | 0.13 | 1005.7 | |
| 20260509134553 | -17 | 326 | 0.0 | 0.0 | 0.05 | 0.28 | 0.13 | 1005.8 | |
| 20260509133050 | -17 | 225 | 0.0 | 0.0 | 0.08 | 0.28 | 0.13 | 1005.9 | |
| 20260509131536 | -17 | 200 | 0.0 | 0.0 | 0.05 | 0.25 | 0.10 | 1005.9 | |
| 20260509130031 | -17 | 222 | 0.0 | 0.0 | 0.05 | 0.25 | 0.10 | 1006.0 | |
| 20260509124526 | -17 | 225 | 0.0 | 1.6 | 0.03 | 0.23 | 0.08 | 1006.0 | |
| 20260509123053 | -17 | 260 | 0.0 | 0.0 | 0.00 | 0.20 | 0.05 | 1006.0 | |
| 20260509121548 | -17 | 280 | 0.0 | 0.0 | 0.03 | 0.20 | 0.05 | 1006.0 | |
| 20260509120042 | -17 | 279 | 0.0 | 0.0 | 0.03 | 0.20 | 0.05 | 1006.1 | |
| 20260509114545 | -17 | 288 | 0.0 | 0.0 | 0.03 | 0.20 | 0.05 | 1006.0 | |
| 20260509113033 | -17 | 271 | 0.0 | 0.0 | 0.03 | 0.20 | 0.05 | 1006.1 | |
| 20260509111529 | -17 | 206 | 0.0 | 0.0 | 0.00 | 0.18 | 0.03 | 1005.9 | |
| 20260509110022 | -17 | 259 | 0.0 | 0.0 | 0.00 | 0.18 | 0.03 | 1005.8 | |
| 20260509104517 | -17 | 253 | 0.0 | 0.0 | 0.00 | 0.18 | 0.03 | 1005.7 | |
| 20260509103013 | -17 | 96 | 0.0 | 0.0 | 0.00 | 0.18 | 0.03 | 1005.7 | |
| 20260509101508 | -17 | 96 | 0.0 | 0.0 | 0.00 | 0.18 | 0.03 | 1005.7 | |
| 20260509100002 | -17 | 96 | 0.0 | 0.0 | 0.00 | 0.18 | 0.03 | 1005.8 | |
| 20260509094557 | -17 | 96 | 0.0 | 0.0 | 0.00 | 0.18 | 0.03 | 1006.0 | |
| 20260509093054 | -17 | 96 | 0.0 | 0.0 | 0.00 | 0.18 | 0.03 | 1006.1 | |
| 20260509091551 | -17 | 96 | 0.0 | 0.0 | 0.00 | 0.18 | 0.03 | 1006.1 | |
| 20260509090045 | -17 | 96 | 0.0 | 0.0 | 0.03 | 0.18 | 0.03 | 1006.4 | |
| 20260509084518 | -17 | 96 | 0.0 | 0.0 | 0.03 | 0.18 | 0.03 | 1006.5 | |
| 20260509083005 | -17 | 96 | 0.0 | 0.0 | 0.03 | 0.18 | 0.03 | 1006.6 | |
| 20260509081600 | -17 | 96 | 0.0 | 0.0 | 0.03 | 0.18 | 0.03 | 1006.4 | |
| 20260509080136 | -17 | 96 | 0.0 | 0.0 | 0.00 | 0.15 | 0.00 | 1006.7 | |
| 20260509074551 | -17 | 96 | 0.0 | 0.0 | 0.00 | 0.15 | 0.00 | 1006.6 | |
| 20260509073137 | -17 | 96 | 0.0 | 0.0 | 0.00 | 0.15 | 0.00 | 1006.6 | |
| 20260509071539 | -17 | 96 | 0.0 | 0.0 | 0.00 | 0.15 | 0.00 | 1006.5 | |
| 20260509070034 | -17 | 57 | 0.0 | 0.0 | 0.00 | 0.15 | 0.00 | 1006.6 | |
| 20260509064530 | -17 | 57 | 0.0 | 0.0 | 0.00 | 0.15 | 0.00 | 1006.6 | |
| 20260509063030 | -17 | 57 | 0.0 | 0.0 | 0.00 | 0.15 | 0.00 | 1006.8 | |
| 20260509061522 | -17 | 57 | 0.0 | 0.0 | 0.00 | 0.15 | 0.00 | 1006.8 | |
| 20260509060016 | -17 | 57 | 0.0 | 0.0 | 0.00 | 0.15 | 0.00 | 1007.0 | |
| 20260509054520 | -17 | 57 | 0.0 | 0.0 | 0.00 | 0.15 | 0.00 | 1007.3 | |
| 20260509053012 | -17 | 57 | 0.0 | 0.0 | 0.00 | 0.15 | 0.00 | 1007.7 | |
| 20260509051605 | -17 | 57 | 0.0 | 0.0 | 0.00 | 0.15 | 0.00 | 1007.7 | |
| 20260509050056 | -17 | 57 | 0.0 | 0.0 | 0.00 | 0.15 | 0.00 | 1007.8 | |
| 20260509044552 | -17 | 57 | 0.0 | 0.0 | 0.00 | 0.15 | 0.00 | 1007.8 | |
| 20260509043054 | -17 | 57 | 0.0 | 0.0 | 0.00 | 0.15 | 0.00 | 1008.0 | |
| 20260509041540 | -17 | 57 | 0.0 | 0.0 | 0.00 | 0.15 | 0.00 | 1008.3 | |
| 20260509040035 | -17 | 57 | 0.0 | 0.0 | 0.03 | 0.15 | 0.00 | 1008.5 | |
| 20260509034532 | -17 | 57 | 0.0 | 0.0 | 0.03 | 0.15 | 0.00 | 1008.6 | |
| 20260509033027 | -17 | 57 | 0.0 | 0.0 | 0.05 | 0.15 | 0.15 | 1008.8 | |
| 20260509031521 | -17 | 57 | 0.0 | 0.0 | 0.08 | 0.15 | 0.15 | 1009.0 | |
| 20260509030016 | -17 | 57 | 0.0 | 0.0 | 0.08 | 0.13 | 0.13 | 1009.2 | |
| 20260509024512 | -17 | 57 | 0.0 | 0.0 | 0.08 | 0.13 | 0.13 | 1009.5 | |
| 20260509023015 | -17 | 57 | 0.0 | 0.0 | 0.05 | 0.10 | 0.10 | 1009.7 |